Dutch
Home     News     Corporate     Events & Tours     Flight ops     Crew centre      
My transavia virtual    Join us    Last logs    Who is flying    Software    Training    VRTS     
 

view flightdata
view flightplan
view OFP
view flightlog



flightdata:
pilot: Jos Peter Jansma
flight: TRA356
from: LOWI (Innsbruck)
to: EGGP (Liverpool)
date: 15-04-2020
departure: 16:40z
arrival: 18:46z
duration: 2:05
aircraft: B738 (PHHXA)
distance: 719 NM
touchdown: -278 ft/m @ 131 KIAS



flightplan:
-(FPL-TRA356-IS
-B738/M-SDE2E3FGIRWXY/LB1
-LOWI1635
-N0450F380 MOGTI P66 KPT L608 LIRSU DCT DENUT L610 HEMEL T420 TNT
-EGGP0147 EGCC
-PBN/A1B1D1O1S1 DOF/200415 REG/PHHXA EET/EDMM0009 EDUU0010 EBUR0042 EGTT0106 SEL/LMBC RVR/200 OPR/TRA)



operational flightplan (OFP):
DISPATCH BRIEFING (TEL:
--------- --------- --------- --------- --------- --------- ---------  
PREDEPARTURE ATC CLEARANCE:
.
.
--------- --------- --------- --------- --------- --------- ---------  
OFP  1    15 APR 20/16:20
                                    OBS  2308

TRA356     C/S TRA5575  LOWI/INN   EGGP/LPL         CRZ SYS     CI 10
15 APR 20  PH-HXA       0915/0915  1112/1117        GND DIST      724
           TAB:.....    CTOT:....  STA  1115        AIR DIST      724
                                                    AVG W/C         0
MAXIMUM    ZFW  62731  LAW  66360  TOW  75975       AVG ISA       M08
ESTIMATED  ZFW  57667  LAW  60227  TOW  64637       F-F FACTOR    0.0
ACTUAL     ZFW  .....  LAW  .....  TOW  .....
--------- --------- --------- --------- --------- --------- ---------
TRIP        4410   0147           .....  .....
CONT         221   0006           .....  .....
ALTN         653   0015  EGCC     .....  .....  ....
FINAL       1079   0030           .....  .....
ADDNL        607   0017           .....  .....
TANKERING                  
PLN TOF     6363   0238
DIFF        ....   ....
PLN TOF     ....   ....  (CORRECTED)   
EXTRA          0   ....                  
TOF         6363   ....                 
TAXI         120   ....                  
BLOCK       7090   ....        
--------- --------- --------- --------- --------- --------- ---------
REASON EXTRA FUEL      MATRIX FUEL:
O ECN-ECONAMICAL     O TMP-TEMPORARILY      O ATC-AIR TRAFFIC CNTRL
O FOB-FUEL ON.BOARD  O MSC-MISCELLANEOUS    O FPC-FLIGHT PLN CORR
O WXR-WEATHER        O TEC-TECHNICAL        ACT.CI/CRZ USED: . . .   

--------- --------- --------- --------- --------- --------- ---------

ZFW ZFW 1000 : PLN TOF   XXXXX/TRIP XXXXX 00 MIN HOLD DEST: 0 EXTRA
ZFW ZFW-1000 : PLN TOF   XXXXX/TRIP XXXXX
--------- --------- --------- --------- --------- --------- ---------
COMMANDERS NAME:                           SIGNATURE:

--------- --------- --------- --------- --------- --------- ---------
FROM:  LOWI ELEV1907     TO: EGGP ELEV81         ALTN: EGCC ELEV 257
ATC C/S     : TRA55TRA356             AVG ISA : M08
CO-ROUTE    :                        AVG TT  :   
FMC-RES FUEL: 1732                   AVG W/C :    0
CRZ ALT     : FL360                  FL310
CI          : CI 10                  FL200     360/000
                                     FL100

LOWI/26  N0450F380 MOGT1X MOGTI P66 KPT L608 LIRSU DCT DENUT L610
HEMEL T420 TNT KEGU2A EGGP/27

--------- --------- --------- --------- --------- --------- ---------
.
.
--------- --------- --------- --------- --------- --------- ---------
RVSM ALT CHECK:  FL:...... LEFT: ...... STBY: ...... RIGHT: ......

--------- --------- --------- --------- --------- --------- ---------
DESTINATION ALTERNATE EGCC
--------- --------- --------- --------- --------- --------- ---------

--------- --------- --------- --------- --------- --------- ---------
--------- --------- --------- --------- --------- --------- ---------
ALTERNATE SUMMARY
--------- --------- --------- --------- --------- --------- ---------
      ALTN        DIST   LVL       WC TIME  FUEL VIA
      EGCC/23R      49  FL070    0 0015   653 WAL2T WAL DCT MCT
INFO/EGNM/32       65  FL110    0 0017   797 POL4T POL
INFO/EGBB/33       82  FL130    0 0020   911 NANT2T NANTI L8 STAFA
                                           OLIV2C
INFO/EGFF/30      139  FL210    0 0029  1288 REXA2T REXAM N864 MONTY
                                           N42 RETSI CDF1A
--------- --------- --------- --------- --------- --------- ---------

-(FPL-TRA356-IS
-B738/M-SDE2E3FGIRWXY/LB1
-LOWI1635
-N0450F380 MOGTI P66 KPT L608 LIRSU DCT DENUT L610 HEMEL T420 TNT
-EGGP0147 EGCC
-PBN/A1B1D1O1S1 DOF/200415 REG/PHHXA EET/EDMM0009 EDUU0010 EBUR0042 EGTT0106 SEL/LMBC RVR/200 OPR/TRA)

WEATHER BRIEFING - GENERATED 15 APR 2020 16:20 UTC
--------------------------------------------------------------------------------

LOWI EGGP EGCC EGNM EGBB EGFF

--------------------------------------------------------------------------------
ORIGIN: LOWI (INNSBRUCK)
--------------------------------------------------------------------------------
LOWI 151550Z 08005KT 040V120 CAVOK 19/M03 Q1020 NOSIG

LOWI 151115Z 1512/1612 08008KT CAVOK TX21/1612Z TN03/1604Z
      BECMG 1518/1520 27004KT
      TEMPO 1609/1612 09007KT


--------------------------------------------------------------------------------
DESTINATION: EGGP (LIVERPOOL)
--------------------------------------------------------------------------------
EGGP 151550Z 27007KT CAVOK 16/05 Q1020

EGGP 151055Z 1512/1612 VRB04KT CAVOK PROB30 1600/1609 7000


--------------------------------------------------------------------------------
ALTERNATE: EGCC (MANCHESTER)
--------------------------------------------------------------------------------
EGCC 151550Z AUTO 25005KT 9999 NCD 17/00 Q1020 NOSIG

EGCC 151055Z 1512/1618 VRB04KT CAVOK PROB30 1600/1608 7000=  EGKK 151057Z 1512/1618 11007KT CAVOK PROB40 1602/1608 6000


--------------------------------------------------------------------------------
ALTERNATE: EGNM (LEEDS BRADFORD)
--------------------------------------------------------------------------------
EGNM 151450Z 27007KT 230V310 CAVOK 17/02 Q1020

EGNM 151055Z 1512/1516 26012KT CAVOK


--------------------------------------------------------------------------------
ALTERNATE: EGBB (BIRMINGHAM)
--------------------------------------------------------------------------------
EGBB 151550Z 13004KT 090V170 CAVOK 17/M05 Q1020

EGBB 151052Z 1512/1612 13004KT CAVOK PROB30 1600/1607 7000=  EGFF 151053Z 1512/1612 09009KT CAVOK


--------------------------------------------------------------------------------
ALTERNATE: EGFF (CARDIFF)
--------------------------------------------------------------------------------
EGFF 151550Z AUTO 08010KT 9999 NCD 17/01 Q1018

EGFF 151053Z 1512/1612 09009KT CAVOK


NOTAM BRIEFING - GENERATED 15 APR 2020 16:20 UTC
--------------------------------------------------------------------------------

LOWI EGGP EGCC EGCC EGNM EGBB EGFF

--------------------------------------------------------------------------------
GLOBAL TRANSAVIA.COM VIRTUAL NOTAMS
--------------------------------------------------------------------------------
REF:NIL PLEASE CONTACT OPERATIONS IN CASE OF STRUCTURAL FLIGHTPLAN ERRORS ON FLIGHT-OPS@TRANSAVIA-VIRTUAL.COM
VALID:UFN

REF:NIL
PLEASE CHECK ACARS EVERY 10 MINUTES WHEN FLYING WITH SOUND OFF. AN NEW ACARS MESSAGE PRODUCE A SOUND SIGNAL UNTILL ITS READ. FLOWCONTROL DON'T RECEIVE MUCH REACTION ON OUTGOING ACARS MESSAGES ACCORDING FLIGHTSTATUS.
SOURCE: SPL/HV/OCC/
END VALID: UFN

REF:NIL
PLEASE CONTACT FLOWCONTROL IN CASE OF PROBLEMS WITH ROUTINGS
SOURCE: SPL/HV/OCC/
END VALID: UFN

REF:NIL
IN CASE OF ENGINE-OUT FLY V2 OR V2 20 MAX. UNTIL ABOVE MSA.
LEVEL-OFF AT AN ALTITUDE ROUNDED OFF TO THE FIRST 1000 FT OF THE HIGHEST MSA.
E.G: MSA EHAM; 1.7 AND 2.3 LEVEL-OFF 3000 FT. AFTER LANDING MAKE A REP TO OCC ON 131.975
SOURCE:SPL/HV/OCC
END VALID:UFN



flightlog:
Pilot : Jos Peter Jansma
Flight: TRA356
From  : LOWI Innsbruck
To    : EGGP Liverpool

[FLIGHTLOG] 1.5.4
15-04-2020 16:39:41z, logging started
15-04-2020 16:40:18z, parking brake released
15-04-2020 16:43:36z, flaps set to 13%
15-04-2020 16:43:37z, flaps set to 25%
15-04-2020 16:43:38z, flaps set to 38%
15-04-2020 16:46:15z, deployed spoilers
15-04-2020 16:46:16z, retracted spoilers
15-04-2020 16:50:19z, take-off at 166 KIAS
15-04-2020 16:50:19z, pos report: 166 KIAS, 01 912 ft, heading 261, winds 000 @ 00 kts
15-04-2020 16:50:19z, flying OFFLINE
15-04-2020 16:50:19z, position: LOWI - Innsbruck
15-04-2020 16:50:21z, retracted gear at 171 KIAS and 16 ft AGL
15-04-2020 16:52:23z, flaps set to 25%
15-04-2020 16:52:24z, flaps set to 0%
15-04-2020 16:54:39z, pos report: 275 KIAS, 11 734 ft, heading 071, winds 000 @ 00 kts
15-04-2020 17:09:40z, pos report: 261 KIAS, 35 908 ft, heading 314, winds 000 @ 00 kts
15-04-2020 17:24:41z, pos report: 252 KIAS, 37 998 ft, heading 313, winds 000 @ 00 kts
15-04-2020 17:39:42z, pos report: 252 KIAS, 37 998 ft, heading 300, winds 000 @ 00 kts
15-04-2020 17:54:43z, pos report: 252 KIAS, 37 998 ft, heading 283, winds 000 @ 00 kts
15-04-2020 18:09:44z, pos report: 272 KIAS, 27 187 ft, heading 281, winds 000 @ 00 kts
15-04-2020 18:24:45z, pos report: 247 KIAS, 05 292 ft, heading 328, winds 000 @ 00 kts
15-04-2020 18:34:58z, flaps set to 13%
15-04-2020 18:34:59z, flaps set to 25%
15-04-2020 18:35:08z, below glideslope
15-04-2020 18:36:28z, flaps set to 38%
15-04-2020 18:37:29z, intercepted localizer
15-04-2020 18:37:48z, flaps set to 50%
15-04-2020 18:37:55z, flaps set to 62%
15-04-2020 18:37:59z, flaps set to 75%
15-04-2020 18:38:09z, flaps set to 87%
15-04-2020 18:38:10z, lowered gear at 165 KIAS and 2760 ft AGL
15-04-2020 18:38:14z, on glideslope
15-04-2020 18:38:55z, flaps set to 100%
15-04-2020 18:39:45z, pos report: 156 KIAS, 02 117 ft, heading 265, winds 000 @ 00 kts
15-04-2020 18:42:15z, touchdown: -278ft/m at 131 KIAS
15-04-2020 18:42:15z, pos report: 131 KIAS, 00 092 ft, heading 265, winds 000 @ 00 kts
15-04-2020 18:42:15z, flying OFFLINE
15-04-2020 18:42:15z, position: EGGP - Liverpool
15-04-2020 18:42:41z, retracted spoilers
15-04-2020 18:42:51z, flaps set to 87%
15-04-2020 18:42:52z, flaps set to 25%
15-04-2020 18:42:53z, flaps set to 0%
15-04-2020 18:46:14z, parking brake set
15-04-2020 18:46:22z, logging ended
15-04-2020 18:46:22z, this flight was flown offline

©2009-2021, transavia virtual. All rights reserved. This website is only meant for simulation purposes.
This website is not owned by transavia, nor is transavia responsible for the content of this website.